Time,TemperatureF,DewpointF,PressureIn,WindDirection,WindDirectionDegrees,WindSpeedMPH,WindSpeedGustMPH,Humidity,HourlyPrecipIn,Conditions,Clouds,dailyrainin,SoftwareType,DateUTC
2013-07-06 00:00:00,79.0,71.0,-100.00,SSW,210,5.0,11.0,76,0.00,,,-99.99,,2013-07-06 04:00:00,
2013-07-06 00:43:00,79.0,71.0,-100.00,SSW,210,5.0,11.0,76,0.00,,,-99.99,,2013-07-06 04:43:00,
2013-07-06 00:53:00,79.0,71.0,-100.00,SSW,210,5.0,11.0,76,0.00,,,-99.99,,2013-07-06 04:53:00,
2013-07-06 01:00:00,78.0,71.0,-100.00,WSW,239,4.0,11.0,79,0.00,,,-99.99,,2013-07-06 05:00:00,
2013-07-06 01:34:00,78.0,71.0,-100.00,WSW,239,4.0,11.0,79,0.00,,,-99.99,,2013-07-06 05:34:00,
2013-07-06 01:43:00,78.0,71.0,-100.00,WSW,239,4.0,11.0,79,0.00,,,-99.99,,2013-07-06 05:43:00,
2013-07-06 01:53:00,78.0,71.0,-100.00,WSW,239,4.0,11.0,79,0.00,,,-99.99,,2013-07-06 05:53:00,
2013-07-06 02:00:00,78.0,71.0,-100.00,West,259,4.0,11.0,80,0.00,,,-99.99,,2013-07-06 06:00:00,
2013-07-06 02:34:00,78.0,71.0,-100.00,West,259,4.0,11.0,80,0.00,,,-99.99,,2013-07-06 06:34:00,
2013-07-06 02:43:00,78.0,71.0,-100.00,West,259,4.0,11.0,80,0.00,,,-99.99,,2013-07-06 06:43:00,
2013-07-06 02:53:00,78.0,71.0,-100.00,West,259,4.0,11.0,80,0.00,,,-99.99,,2013-07-06 06:53:00,
2013-07-06 03:00:00,77.0,71.0,-100.00,SW,215,7.0,14.0,81,0.00,,,-99.99,,2013-07-06 07:00:00,
2013-07-06 03:33:00,77.0,71.0,-100.00,SW,215,7.0,14.0,81,0.00,,,-99.99,,2013-07-06 07:33:00,
2013-07-06 03:44:00,77.0,71.0,-100.00,SW,215,7.0,14.0,81,0.00,,,-99.99,,2013-07-06 07:44:00,
2013-07-06 03:52:00,77.0,71.0,-100.00,SW,215,7.0,14.0,81,0.00,,,-99.99,,2013-07-06 07:52:00,
2013-07-06 04:00:00,77.0,71.0,-100.00,WSW,254,5.0,14.0,83,0.00,,,-99.99,,2013-07-06 08:00:00,
2013-07-06 04:34:00,77.0,71.0,-100.00,WSW,254,5.0,14.0,83,0.00,,,-99.99,,2013-07-06 08:34:00,
2013-07-06 04:43:00,77.0,71.0,-100.00,WSW,254,5.0,14.0,83,0.00,,,-99.99,,2013-07-06 08:43:00,
2013-07-06 04:54:00,77.0,71.0,-100.00,WSW,254,5.0,14.0,83,0.00,,,-99.99,,2013-07-06 08:54:00,
2013-07-06 05:00:00,77.0,71.0,-100.00,WSW,256,5.0,11.0,84,0.00,,,-99.99,,2013-07-06 09:00:00,
2013-07-06 05:34:00,77.0,71.0,-100.00,WSW,256,5.0,11.0,84,0.00,,,-99.99,,2013-07-06 09:34:00,
2013-07-06 05:43:00,77.0,71.0,-100.00,WSW,256,5.0,11.0,84,0.00,,,-99.99,,2013-07-06 09:43:00,
2013-07-06 05:53:00,77.0,71.0,-100.00,WSW,256,5.0,11.0,84,0.00,,,-99.99,,2013-07-06 09:53:00,
2013-07-06 06:00:00,76.0,72.0,-100.00,WSW,240,3.0,11.0,86,0.00,,,-99.99,,2013-07-06 10:00:00,
2013-07-06 06:33:00,76.0,72.0,-100.00,WSW,240,3.0,11.0,86,0.00,,,-99.99,,2013-07-06 10:33:00,
2013-07-06 06:43:00,76.0,72.0,-100.00,WSW,240,3.0,11.0,86,0.00,,,-99.99,,2013-07-06 10:43:00,
2013-07-06 06:53:00,76.0,72.0,-100.00,WSW,240,3.0,11.0,86,0.00,,,-99.99,,2013-07-06 10:53:00,
2013-07-06 07:00:00,78.0,72.0,-100.00,WSW,243,11.0,13.0,83,0.00,,,-99.99,,2013-07-06 11:00:00,
2013-07-06 07:33:00,78.0,72.0,-100.00,WSW,243,11.0,13.0,83,0.00,,,-99.99,,2013-07-06 11:33:00,
2013-07-06 07:43:00,78.0,72.0,-100.00,WSW,243,11.0,13.0,83,0.00,,,-99.99,,2013-07-06 11:43:00,
2013-07-06 07:53:00,78.0,72.0,-100.00,WSW,243,11.0,13.0,83,0.00,,,-99.99,,2013-07-06 11:53:00,
2013-07-06 08:00:00,80.0,73.0,-100.00,WSW,239,4.0,15.0,79,0.00,,,-99.99,,2013-07-06 12:00:00,
2013-07-06 08:33:00,80.0,73.0,-100.00,WSW,239,4.0,15.0,79,0.00,,,-99.99,,2013-07-06 12:33:00,
2013-07-06 08:43:00,80.0,73.0,-100.00,WSW,239,4.0,15.0,79,0.00,,,-99.99,,2013-07-06 12:43:00,
2013-07-06 08:52:00,80.0,73.0,-100.00,WSW,239,4.0,15.0,79,0.00,,,-99.99,,2013-07-06 12:52:00,
2013-07-06 09:00:00,82.0,73.0,-100.00,West,280,5.0,14.0,73,0.00,,,-99.99,,2013-07-06 13:00:00,
2013-07-06 09:33:00,82.0,73.0,-100.00,West,280,5.0,14.0,73,0.00,,,-99.99,,2013-07-06 13:33:00,
2013-07-06 09:43:00,82.0,73.0,-100.00,West,280,5.0,14.0,73,0.00,,,-99.99,,2013-07-06 13:43:00,
2013-07-06 09:52:00,82.0,73.0,-100.00,West,280,5.0,14.0,73,0.00,,,-99.99,,2013-07-06 13:52:00,
2013-07-06 10:00:00,85.0,72.0,-100.00,NNW,334,8.0,12.0,65,0.00,,,-99.99,,2013-07-06 14:00:00,
2013-07-06 10:34:00,85.0,72.0,-100.00,NNW,334,8.0,12.0,65,0.00,,,-99.99,,2013-07-06 14:34:00,
2013-07-06 10:43:00,85.0,72.0,-100.00,NNW,334,8.0,12.0,65,0.00,,,-99.99,,2013-07-06 14:43:00,
2013-07-06 10:53:00,85.0,72.0,-100.00,NNW,334,8.0,12.0,65,0.00,,,-99.99,,2013-07-06 14:53:00,
2013-07-06 11:00:00,87.0,72.0,-100.00,WSW,245,3.0,14.0,62,0.00,,,-99.99,,2013-07-06 15:00:00,
2013-07-06 11:34:00,87.0,72.0,-100.00,WSW,245,3.0,14.0,62,0.00,,,-99.99,,2013-07-06 15:34:00,
2013-07-06 11:43:00,87.0,72.0,-100.00,WSW,245,3.0,14.0,62,0.00,,,-99.99,,2013-07-06 15:43:00,
2013-07-06 11:53:00,87.0,72.0,-100.00,WSW,245,3.0,14.0,62,0.00,,,-99.99,,2013-07-06 15:53:00,
2013-07-06 12:00:00,89.0,71.0,-100.00,West,261,10.0,15.0,56,0.00,,,-99.99,,2013-07-06 16:00:00,
2013-07-06 13:00:00,90.0,69.0,-100.00,WNW,292,12.0,16.0,50,0.00,,,-99.99,,2013-07-06 17:00:00,
2013-07-06 13:45:00,90.0,69.0,-100.00,WNW,292,12.0,16.0,50,0.00,,,-99.99,,2013-07-06 17:45:00,
2013-07-06 14:00:00,91.0,71.0,-100.00,WNW,284,5.0,15.0,51,0.00,,,-99.99,,2013-07-06 18:00:00,
2013-07-06 15:00:00,92.0,69.0,-100.00,WSW,255,7.0,16.0,48,0.00,,,-99.99,,2013-07-06 19:00:00,
2013-07-06 15:50:00,92.0,69.0,-100.00,WSW,255,7.0,16.0,48,0.00,,,-99.99,,2013-07-06 19:50:00,
2013-07-06 16:00:00,93.0,69.0,-100.00,SW,214,6.0,17.0,45,0.00,,,-99.99,,2013-07-06 20:00:00,
2013-07-06 17:00:00,93.0,69.0,-100.00,WNW,303,3.0,16.0,46,0.00,,,-99.99,,2013-07-06 21:00:00,
2013-07-06 17:50:00,93.0,69.0,-100.00,WNW,303,3.0,16.0,46,0.00,,,-99.99,,2013-07-06 21:50:00,
2013-07-06 18:00:00,93.0,69.0,-100.00,SW,221,5.0,12.0,46,0.00,,,-99.99,,2013-07-06 22:00:00,
2013-07-06 19:00:00,91.0,70.0,-100.00,West,259,4.0,12.0,50,0.00,,,-99.99,,2013-07-06 23:00:00,
2013-07-06 21:00:00,87.0,69.0,-100.00,WSW,246,4.0,11.0,55,0.00,,,-99.99,,2013-07-07 01:00:00,
2013-07-06 21:50:00,87.0,69.0,-100.00,WSW,246,4.0,11.0,55,0.00,,,-99.99,,2013-07-07 01:50:00,
2013-07-06 22:00:00,85.0,69.0,-100.00,WSW,239,5.0,11.0,59,0.00,,,-99.99,,2013-07-07 02:00:00,
2013-07-06 22:55:00,85.0,69.0,-100.00,WSW,239,5.0,11.0,59,0.00,,,-99.99,,2013-07-07 02:55:00,
2013-07-06 23:00:00,84.0,70.0,-100.00,WSW,250,4.0,15.0,62,0.00,,,-99.99,,2013-07-07 03:00:00,
2013-07-06 23:44:00,84.0,70.0,-100.00,WSW,250,4.0,15.0,62,0.00,,,-99.99,,2013-07-07 03:44:00,